Time;durP1;ratioP1;P1;durP2;ratioP2;P2;SDS_P1;SDS_P2;PMS_P1;PMS_P2;Temp;Humidity;BMP_temperature;BMP_pressure;BME280_temperature;BME280_humidity;BME280_pressure;Samples;Min_cycle;Max_cycle;Signal;HPM_P1;HPM_P2
2022/07/01 00:01:40;;;;;;;0.90;0.90;;;18.90;99.90;;;;;;5064523;28;20123;-39
2022/07/01 00:04:06;;;;;;;1.40;1.30;;;18.90;99.90;;;;;;5064169;28;20088;-39
2022/07/01 00:06:33;;;;;;;1.70;1.00;;;18.80;99.90;;;;;;5064723;28;20103;-39
2022/07/01 00:08:58;;;;;;;1.10;1.10;;;18.70;99.90;;;;;;5062583;28;20033;-39
2022/07/01 00:11:24;;;;;;;1.00;1.00;;;18.70;99.90;;;;;;5062334;28;20423;-37
2022/07/01 00:13:50;;;;;;;1.23;1.08;;;18.70;99.90;;;;;;5064100;28;20151;-40
2022/07/01 00:16:15;;;;;;;1.33;1.15;;;18.70;99.90;;;;;;5062494;28;20043;-38
2022/07/01 00:18:41;;;;;;;1.95;1.40;;;18.70;99.90;;;;;;5061823;28;20094;-37
2022/07/01 00:21:07;;;;;;;1.00;0.90;;;18.70;99.90;;;;;;5060902;28;20033;-40
2022/07/01 00:23:33;;;;;;;1.42;1.00;;;18.70;99.90;;;;;;5061211;28;20074;-37
2022/07/01 00:25:59;;;;;;;1.48;0.90;;;18.60;99.90;;;;;;5063556;28;20037;-40
2022/07/01 00:28:25;;;;;;;3.08;1.38;;;18.60;99.90;;;;;;5063933;28;20033;-39
2022/07/01 00:30:51;;;;;;;3.20;1.30;;;18.70;99.90;;;;;;5066469;28;20050;-37
2022/07/01 00:33:17;;;;;;;0.90;0.90;;;18.70;99.90;;;;;;5080549;28;20033;-40
2022/07/01 00:35:43;;;;;;;1.30;1.20;;;18.70;99.90;;;;;;5083059;28;20032;-37
2022/07/01 00:38:09;;;;;;;1.35;1.05;;;18.70;99.90;;;;;;5081025;28;20039;-40
2022/07/01 00:40:35;;;;;;;1.10;1.10;;;18.80;99.90;;;;;;5080048;28;20028;-39
2022/07/01 00:43:00;;;;;;;0.98;0.98;;;18.70;99.90;;;;;;5080589;28;20035;-38
2022/07/01 00:45:26;;;;;;;1.30;1.20;;;18.70;99.90;;;;;;5082516;28;20031;-37
2022/07/01 00:47:52;;;;;;;0.90;0.90;;;18.70;99.90;;;;;;5080367;28;20109;-39
2022/07/01 00:50:18;;;;;;;0.90;0.90;;;18.80;99.90;;;;;;5083228;28;20838;-40
2022/07/01 00:52:45;;;;;;;1.05;0.93;;;18.80;99.90;;;;;;5077942;28;20077;-40
2022/07/01 00:55:13;;;;;;;0.98;0.90;;;18.80;99.90;;;;;;5082298;28;20089;-38
2022/07/01 00:57:40;;;;;;;0.70;0.70;;;18.80;99.90;;;;;;5080085;28;20024;-40
2022/07/01 01:00:09;;;;;;;1.23;1.00;;;18.70;99.90;;;;;;5080655;28;20039;-40
2022/07/01 01:02:35;;;;;;;;;;;18.60;99.90;;;;;;5078074;28;20119;-38
2022/07/01 01:05:00;;;;;;;1.10;0.93;;;18.60;99.90;;;;;;5079030;28;19912;-40
2022/07/01 01:07:27;;;;;;;2.22;1.20;;;18.50;99.90;;;;;;5082730;28;20073;-39
2022/07/01 01:09:52;;;;;;;1.25;0.90;;;18.40;99.90;;;;;;5081486;28;20024;-37
2022/07/01 01:12:18;;;;;;;1.23;1.00;;;18.40;99.90;;;;;;5078840;28;20040;-38
2022/07/01 01:14:45;;;;;;;1.02;0.90;;;18.50;99.90;;;;;;5083927;28;20381;-38
2022/07/01 01:17:12;;;;;;;2.03;0.90;;;18.50;99.90;;;;;;5080723;28;20096;-39
2022/07/01 01:19:38;;;;;;;1.75;1.33;;;18.30;99.90;;;;;;5080305;28;20051;-38
2022/07/01 01:22:04;;;;;;;1.35;1.10;;;18.20;99.90;;;;;;5080486;28;20115;-37
2022/07/01 01:24:29;;;;;;;1.23;1.13;;;18.30;99.90;;;;;;5080992;28;20103;-39
2022/07/01 01:26:55;;;;;;;2.58;1.10;;;18.30;99.90;;;;;;5079279;28;20365;-38
2022/07/01 01:29:20;;;;;;;0.82;0.82;;;18.30;99.90;;;;;;5081906;28;20659;-38
2022/07/01 01:31:46;;;;;;;1.10;1.00;;;18.20;99.90;;;;;;5078157;28;20050;-39
2022/07/01 01:34:12;;;;;;;1.70;0.90;;;18.30;99.90;;;;;;5077523;28;20534;-38
2022/07/01 01:36:38;;;;;;;1.15;1.00;;;18.20;99.90;;;;;;5080989;28;20119;-38
2022/07/01 01:39:24;;;;;;;0.82;0.80;;;18.30;99.90;;;;;;5081765;28;20105;-40
2022/07/01 01:41:49;;;;;;;1.33;1.00;;;18.20;99.90;;;;;;5078289;28;20048;-37
2022/07/01 01:44:15;;;;;;;1.08;1.00;;;18.20;99.90;;;;;;5078255;28;20476;-36
2022/07/01 01:46:40;;;;;;;1.10;1.10;;;18.10;99.90;;;;;;5080008;28;20031;-40
2022/07/01 01:49:07;;;;;;;0.77;0.77;;;18.20;99.90;;;;;;5080732;28;20720;-37
2022/07/01 01:51:33;;;;;;;1.30;1.02;;;18.20;99.90;;;;;;5081293;28;20027;-39
2022/07/01 01:53:59;;;;;;;1.33;1.23;;;18.10;99.90;;;;;;5079056;28;20039;-40
2022/07/01 01:56:25;;;;;;;1.30;1.20;;;18.10;99.90;;;;;;5079932;28;20036;-36
2022/07/01 01:58:51;;;;;;;1.17;1.08;;;18.20;99.90;;;;;;5078417;28;20035;-38
2022/07/01 02:01:18;;;;;;;2.17;1.23;;;18.20;99.90;;;;;;5080840;28;20046;-36
2022/07/01 02:03:46;;;;;;;1.23;1.13;;;18.20;99.90;;;;;;5078525;28;20473;-37
2022/07/01 02:06:13;;;;;;;1.10;1.10;;;18.10;99.90;;;;;;5082943;28;20032;-38
2022/07/01 02:08:40;;;;;;;1.40;1.30;;;18.20;99.90;;;;;;5083960;28;20090;-38
2022/07/01 02:11:06;;;;;;;1.20;1.10;;;18.20;99.90;;;;;;5084912;28;20477;-39
2022/07/01 02:13:32;;;;;;;1.85;1.15;;;18.30;99.90;;;;;;5086982;28;20075;-37
2022/07/01 02:15:58;;;;;;;1.27;1.17;;;18.20;99.90;;;;;;5083876;28;20512;-37
2022/07/01 02:18:24;;;;;;;2.05;1.30;;;18.30;99.90;;;;;;5083364;28;20058;-40
2022/07/01 02:20:50;;;;;;;1.38;1.17;;;18.20;99.90;;;;;;5083903;28;20023;-36
2022/07/01 02:23:15;;;;;;;1.20;1.10;;;18.30;99.90;;;;;;5083471;28;20438;-38
2022/07/01 02:25:41;;;;;;;0.80;0.80;;;18.30;99.90;;;;;;5082808;28;20024;-39
2022/07/01 02:28:08;;;;;;;1.13;1.13;;;18.30;99.90;;;;;;5084905;28;20050;-36
2022/07/01 02:30:36;;;;;;;1.10;1.10;;;18.20;99.90;;;;;;5083265;28;20028;-39
2022/07/01 02:33:02;;;;;;;2.35;1.30;;;18.20;99.90;;;;;;5084242;28;20416;-38
2022/07/01 02:35:28;;;;;;;1.20;1.10;;;18.10;99.90;;;;;;5080565;28;20036;-40
2022/07/01 02:37:54;;;;;;;1.40;1.00;;;18.00;99.90;;;;;;5083837;28;20400;-36
2022/07/01 02:40:19;;;;;;;1.42;1.10;;;18.00;99.90;;;;;;5085263;28;20263;-39
2022/07/01 02:42:46;;;;;;;1.70;1.40;;;17.90;99.90;;;;;;5083726;28;20076;-40
2022/07/01 02:45:12;;;;;;;2.85;1.73;;;17.80;99.90;;;;;;5081607;28;20024;-38
2022/07/01 02:47:39;;;;;;;3.05;1.33;;;17.80;99.90;;;;;;5082361;28;20508;-37
2022/07/01 02:50:07;;;;;;;1.60;1.50;;;17.80;99.90;;;;;;5083542;28;20028;-39
2022/07/01 02:52:38;;;;;;;1.52;1.35;;;17.90;99.90;;;;;;5083815;28;20043;-40
2022/07/01 02:55:06;;;;;;;1.65;1.20;;;17.90;99.90;;;;;;5082326;28;20020;-40
2022/07/01 02:57:32;;;;;;;1.30;1.20;;;17.90;99.90;;;;;;5083400;28;20039;-40
2022/07/01 02:59:58;;;;;;;1.20;1.20;;;17.80;99.90;;;;;;5083471;28;20632;-40
2022/07/01 03:02:24;;;;;;;1.60;1.50;;;17.80;99.90;;;;;;5082720;28;20421;-39
2022/07/01 03:04:51;;;;;;;2.13;1.45;;;17.80;99.90;;;;;;5080795;28;20095;-37
2022/07/01 03:07:18;;;;;;;1.60;1.50;;;17.80;99.90;;;;;;5083071;28;20453;-38
2022/07/01 03:09:44;;;;;;;1.40;1.30;;;17.80;99.90;;;;;;5083893;28;20043;-38
2022/07/01 03:12:29;;;;;;;1.63;1.05;;;17.80;99.90;;;;;;5081923;28;20036;-40
2022/07/01 03:15:15;;;;;;;1.52;1.42;;;18.00;99.90;;;;;;5081041;28;20024;-39
2022/07/01 03:17:44;;;;;;;1.55;1.30;;;17.90;99.90;;;;;;5081657;28;20024;-38
2022/07/01 03:20:13;;;;;;;1.40;1.30;;;18.00;99.90;;;;;;5081605;28;20078;-38
2022/07/01 03:22:40;;;;;;;1.63;1.30;;;18.10;99.90;;;;;;5083754;28;20027;-39
2022/07/01 03:25:06;;;;;;;1.52;1.40;;;18.10;99.90;;;;;;5081508;28;20468;-37
2022/07/01 03:27:32;;;;;;;1.67;1.58;;;18.00;99.90;;;;;;5081528;28;20016;-40
2022/07/01 03:29:58;;;;;;;1.63;1.50;;;17.90;99.90;;;;;;5082893;28;20072;-39
2022/07/01 03:32:24;;;;;;;1.63;1.30;;;17.80;99.90;;;;;;5082418;28;20036;-37
2022/07/01 03:34:51;;;;;;;2.75;1.42;;;17.90;99.90;;;;;;5081544;28;20036;-40
2022/07/01 03:37:19;;;;;;;2.23;1.40;;;17.90;99.90;;;;;;5081965;28;20483;-36
2022/07/01 03:39:45;;;;;;;1.92;1.40;;;18.00;99.90;;;;;;5084350;28;20040;-37
2022/07/01 03:42:11;;;;;;;3.35;1.52;;;18.10;99.90;;;;;;5084917;28;20084;-37
2022/07/01 03:44:37;;;;;;;1.40;1.30;;;18.10;99.90;;;;;;5082399;28;20031;-39
2022/07/01 03:47:07;;;;;;;2.28;1.40;;;18.20;99.90;;;;;;5081399;28;20095;-39
2022/07/01 03:49:34;;;;;;;2.75;1.23;;;18.20;99.90;;;;;;5081740;28;20038;-40
2022/07/01 03:52:00;;;;;;;1.52;1.40;;;18.20;99.90;;;;;;5083907;28;20120;-40
2022/07/01 03:54:38;;;;;;;1.63;1.48;;;18.20;99.90;;;;;;5083691;28;20433;-40
2022/07/01 03:57:04;;;;;;;;;;;18.30;99.90;;;;;;5085783;28;20078;-39
2022/07/01 03:59:32;;;;;;;2.13;1.75;;;18.20;99.90;;;;;;5083812;28;19938;-40
2022/07/01 04:01:58;;;;;;;1.60;1.50;;;18.10;99.90;;;;;;5083262;28;20127;-38
2022/07/01 04:04:25;;;;;;;2.22;1.40;;;18.00;99.90;;;;;;5082307;28;20039;-37
2022/07/01 04:06:52;;;;;;;1.98;1.35;;;17.90;99.90;;;;;;5081595;28;20038;-38
2022/07/01 04:09:18;;;;;;;2.03;1.45;;;18.00;99.90;;;;;;5094660;28;20940;-37
2022/07/01 04:11:45;;;;;;;1.80;1.70;;;17.80;99.90;;;;;;5084657;28;20058;-39
2022/07/01 04:14:11;;;;;;;3.17;1.70;;;17.60;99.90;;;;;;5082313;28;20032;-38
2022/07/01 04:16:37;;;;;;;1.55;1.45;;;17.60;99.90;;;;;;5082550;28;20433;-36
2022/07/01 04:19:04;;;;;;;1.85;1.75;;;17.60;99.90;;;;;;5081686;28;20027;-37
2022/07/01 04:24:14;;;;;;;1.77;1.50;;;17.20;99.90;;;;;;5081502;28;20397;-37
2022/07/01 04:26:41;;;;;;;2.45;1.67;;;17.10;99.90;;;;;;5079039;28;20028;-38
2022/07/01 04:29:07;;;;;;;2.35;1.80;;;17.20;99.90;;;;;;5080858;28;20055;-39
2022/07/01 04:31:33;;;;;;;2.65;1.75;;;17.10;99.90;;;;;;5082419;28;20032;-37
2022/07/01 04:33:59;;;;;;;3.22;1.90;;;17.00;99.90;;;;;;5080069;28;20036;-39
2022/07/01 04:36:25;;;;;;;2.78;1.90;;;17.10;99.90;;;;;;5078858;28;20039;-39
2022/07/01 04:38:51;;;;;;;2.28;1.70;;;17.20;99.90;;;;;;5080819;28;20032;-36
2022/07/01 04:44:01;;;;;;;3.22;1.60;;;17.60;99.90;;;;;;5082675;28;20098;-40
2022/07/01 04:46:27;;;;;;;1.70;1.60;;;17.60;99.90;;;;;;5078282;28;20032;-38
2022/07/01 04:48:52;;;;;;;2.25;1.58;;;17.70;99.90;;;;;;5080340;28;20405;-38
2022/07/01 04:51:18;;;;;;;16.98;2.50;;;17.70;99.90;;;;;;5079056;28;20063;-36
2022/07/01 04:53:43;;;;;;;3.03;1.77;;;17.70;99.90;;;;;;5079748;28;20033;-40
2022/07/01 04:56:09;;;;;;;1.65;1.35;;;17.80;99.90;;;;;;5079486;28;20451;-38
2022/07/01 04:58:35;;;;;;;1.42;1.20;;;17.00;99.90;;;;;;5082691;28;20035;-39
2022/07/01 05:01:00;;;;;;;1.10;1.10;;;16.80;99.90;;;;;;5079297;28;20036;-37
2022/07/01 05:03:26;;;;;;;2.05;1.00;;;16.70;99.90;;;;;;5082558;28;20031;-40
2022/07/01 05:05:51;;;;;;;1.10;1.10;;;16.50;99.90;;;;;;5081196;28;20552;-40
2022/07/01 05:08:17;;;;;;;1.42;1.05;;;16.20;99.90;;;;;;5082246;28;20032;-39
2022/07/01 05:10:42;;;;;;;0.70;0.70;;;16.20;99.90;;;;;;5080821;28;20039;-39
2022/07/01 05:13:08;;;;;;;0.80;0.80;;;15.80;99.90;;;;;;5084461;28;20032;-39
2022/07/01 05:15:34;;;;;;;0.90;0.90;;;15.70;99.90;;;;;;5083250;28;20020;-38
2022/07/01 05:23:29;;;;;;;0.80;0.80;;;15.60;99.90;;;;;;5070416;28;20036;-36
2022/07/01 05:25:55;;;;;;;1.23;1.05;;;15.70;99.90;;;;;;5084086;28;20031;-38
2022/07/01 05:28:20;;;;;;;1.02;1.02;;;15.70;99.90;;;;;;5082093;28;20711;-37
2022/07/01 05:30:46;;;;;;;1.08;1.02;;;15.50;99.90;;;;;;5080970;28;20040;-39
2022/07/01 05:33:11;;;;;;;2.60;1.00;;;15.40;99.90;;;;;;5084212;28;20019;-38
2022/07/01 05:35:37;;;;;;;1.20;1.10;;;15.30;99.90;;;;;;5084159;28;20031;-37
2022/07/01 05:38:03;;;;;;;1.20;1.10;;;15.30;99.90;;;;;;5084680;28;20537;-37
2022/07/01 05:40:28;;;;;;;3.15;0.82;;;15.30;99.90;;;;;;5081350;28;20020;-39
2022/07/01 05:42:54;;;;;;;2.00;0.95;;;15.20;99.90;;;;;;5082735;28;20095;-38
2022/07/01 05:45:20;;;;;;;1.02;1.02;;;15.30;99.90;;;;;;5082676;28;20024;-37
2022/07/01 05:47:45;;;;;;;0.90;0.90;;;15.20;99.90;;;;;;5081975;28;20056;-39
2022/07/01 05:50:12;;;;;;;0.90;0.90;;;15.30;99.90;;;;;;5081839;28;20578;-40
2022/07/01 05:52:38;;;;;;;0.68;0.68;;;15.30;99.90;;;;;;5084794;28;20027;-37
2022/07/01 05:55:04;;;;;;;0.45;0.45;;;15.20;99.90;;;;;;5082706;28;20104;-40
2022/07/01 05:57:29;;;;;;;0.70;0.70;;;15.10;99.90;;;;;;5086296;28;20024;-38
2022/07/01 05:59:55;;;;;;;0.63;0.63;;;15.00;99.90;;;;;;5087136;28;20433;-39
2022/07/01 06:02:21;;;;;;;2.95;1.98;;;15.00;99.90;;;;;;5085562;28;20059;-37
2022/07/01 06:04:46;;;;;;;0.77;0.77;;;14.90;99.90;;;;;;5081447;28;20419;-38
2022/07/01 06:07:12;;;;;;;0.65;0.65;;;14.80;99.90;;;;;;5083618;28;20473;-37
2022/07/01 06:09:38;;;;;;;1.90;0.70;;;14.50;99.90;;;;;;5085327;28;20216;-37
2022/07/01 06:12:04;;;;;;;0.68;0.68;;;14.60;99.90;;;;;;5085204;28;20042;-40
2022/07/01 06:14:31;;;;;;;2.30;2.20;;;14.60;99.90;;;;;;5084524;28;20024;-40
2022/07/01 06:16:57;;;;;;;0.70;0.70;;;14.60;99.90;;;;;;5078088;28;20511;-38
2022/07/01 06:19:23;;;;;;;3.45;0.85;;;14.70;99.90;;;;;;5080845;28;20028;-37
2022/07/01 06:21:49;;;;;;;2.15;0.75;;;14.70;99.90;;;;;;5081315;28;20024;-39
2022/07/01 06:24:14;;;;;;;0.90;0.90;;;14.80;99.90;;;;;;5081680;28;20035;-36
2022/07/01 06:26:41;;;;;;;0.68;0.68;;;14.90;99.90;;;;;;5079137;28;20471;-37
2022/07/01 06:29:07;;;;;;;0.75;0.75;;;15.00;99.90;;;;;;5078582;28;20048;-36
2022/07/01 06:31:33;;;;;;;0.80;0.80;;;15.00;99.90;;;;;;5080032;28;20035;-39
2022/07/01 06:34:00;;;;;;;0.75;0.65;;;15.00;99.90;;;;;;5081489;28;20062;-36
2022/07/01 06:36:26;;;;;;;0.60;0.60;;;14.80;99.90;;;;;;5081251;28;20033;-40
2022/07/01 06:38:52;;;;;;;2.15;0.90;;;14.80;99.90;;;;;;5078846;28;20031;-37
2022/07/01 06:41:27;;;;;;;0.82;0.82;;;14.80;99.90;;;;;;5078869;28;20027;-36
2022/07/01 06:43:57;;;;;;;0.93;0.77;;;14.80;99.90;;;;;;5081110;28;20017;-36
2022/07/01 06:46:25;;;;;;;0.73;0.73;;;14.90;99.90;;;;;;5077714;28;20031;-36
2022/07/01 06:48:51;;;;;;;0.80;0.80;;;14.90;99.90;;;;;;5096150;28;20623;-38
2022/07/01 06:51:18;;;;;;;0.77;0.70;;;14.90;99.90;;;;;;5087823;28;20027;-37
2022/07/01 06:53:46;;;;;;;1.02;1.02;;;14.80;99.90;;;;;;5083372;28;20032;-36
2022/07/01 06:56:13;;;;;;;0.93;0.93;;;14.70;99.90;;;;;;5084361;28;20165;-36
2022/07/01 06:58:39;;;;;;;0.82;0.82;;;14.70;99.90;;;;;;5062062;28;20545;-37
2022/07/01 07:01:05;;;;;;;1.42;1.33;;;14.70;99.90;;;;;;5079627;28;20036;-40
2022/07/01 07:03:32;;;;;;;0.88;0.88;;;14.40;99.90;;;;;;5064174;28;20109;-38
2022/07/01 07:06:01;;;;;;;0.90;0.90;;;14.30;99.90;;;;;;5082593;28;20028;-40
2022/07/01 07:08:28;;;;;;;1.48;1.10;;;14.30;99.90;;;;;;5083058;28;20035;-40
2022/07/01 07:10:54;;;;;;;1.00;1.00;;;14.40;99.90;;;;;;5083645;28;20111;-39
2022/07/01 07:13:20;;;;;;;0.90;0.90;;;14.40;99.90;;;;;;5084356;28;20496;-39
2022/07/01 07:15:45;;;;;;;1.20;1.10;;;14.40;99.90;;;;;;5081764;28;20527;-38
2022/07/01 07:18:12;;;;;;;1.00;1.00;;;14.20;99.90;;;;;;5081886;28;20095;-39
2022/07/01 07:20:38;;;;;;;1.00;1.00;;;14.10;99.90;;;;;;5083913;28;20016;-39
2022/07/01 07:23:04;;;;;;;1.40;1.30;;;14.00;99.90;;;;;;5088816;28;20036;-40
2022/07/01 07:25:30;;;;;;;0.70;0.70;;;14.10;99.90;;;;;;5083006;28;20393;-38
2022/07/01 07:27:56;;;;;;;2.20;0.90;;;13.80;99.90;;;;;;5089853;28;20036;-40
2022/07/01 07:30:22;;;;;;;1.25;1.15;;;13.80;99.90;;;;;;5076563;28;20419;-40
2022/07/01 07:32:48;;;;;;;1.63;1.13;;;13.90;99.90;;;;;;5081195;28;20012;-39
2022/07/01 07:35:14;;;;;;;1.13;1.13;;;13.80;99.90;;;;;;5085877;28;20032;-40
2022/07/01 07:37:40;;;;;;;1.75;1.20;;;14.00;99.90;;;;;;5084134;28;21692;-40
2022/07/01 07:40:09;;;;;;;1.38;1.27;;;14.00;99.90;;;;;;5089823;28;20142;-39
2022/07/01 07:42:35;;;;;;;2.15;1.20;;;14.10;99.90;;;;;;5081903;28;20042;-39
2022/07/01 07:45:02;;;;;;;1.45;1.30;;;13.90;99.90;;;;;;5090083;28;20027;-37
2022/07/01 07:47:29;;;;;;;2.17;1.48;;;14.00;99.90;;;;;;5079664;28;20039;-38
2022/07/01 07:49:55;;;;;;;1.48;1.38;;;14.10;99.90;;;;;;5081664;28;20035;-37
2022/07/01 07:52:21;;;;;;;1.75;1.65;;;14.30;99.90;;;;;;5082151;28;20447;-39
2022/07/01 07:54:47;;;;;;;1.60;1.50;;;14.50;99.90;;;;;;5098304;28;20020;-37
2022/07/01 07:57:13;;;;;;;1.30;1.20;;;14.40;99.90;;;;;;5081076;28;20024;-39
2022/07/01 07:59:39;;;;;;;1.83;1.33;;;14.30;99.90;;;;;;5080696;28;20055;-40
2022/07/01 08:02:05;;;;;;;3.63;2.00;;;14.20;99.90;;;;;;5077965;28;20056;-38
2022/07/01 08:04:31;;;;;;;1.55;1.45;;;14.30;99.90;;;;;;5082235;28;20381;-36
2022/07/01 08:06:58;;;;;;;2.22;1.38;;;14.30;99.90;;;;;;5082381;28;20073;-37
2022/07/01 08:09:24;;;;;;;1.60;1.50;;;14.30;99.90;;;;;;5097061;28;20366;-40
2022/07/01 08:11:50;;;;;;;2.10;1.40;;;14.50;99.90;;;;;;5083697;28;20085;-37
2022/07/01 08:14:16;;;;;;;1.42;1.33;;;14.70;99.90;;;;;;5084953;28;20078;-36
2022/07/01 08:16:42;;;;;;;1.50;1.40;;;14.60;99.90;;;;;;5084273;28;20038;-36
2022/07/01 08:19:08;;;;;;;1.33;1.23;;;14.40;99.90;;;;;;5080031;28;20028;-39
2022/07/01 08:21:34;;;;;;;1.23;1.20;;;14.20;99.90;;;;;;5081033;28;20484;-39
2022/07/01 08:24:00;;;;;;;1.45;1.40;;;14.30;99.90;;;;;;5079409;28;20108;-40
2022/07/01 08:26:26;;;;;;;1.00;1.00;;;14.30;99.90;;;;;;5097390;28;20036;-39
2022/07/01 08:28:52;;;;;;;1.10;1.10;;;14.40;99.90;;;;;;5082409;28;20035;-38
2022/07/01 08:31:17;;;;;;;1.40;1.30;;;14.30;99.90;;;;;;5079315;28;20515;-40
2022/07/01 08:33:43;;;;;;;1.23;1.20;;;14.40;99.90;;;;;;5080976;28;20032;-38
2022/07/01 08:36:10;;;;;;;1.00;1.00;;;14.50;99.90;;;;;;5087184;28;20544;-38
2022/07/01 08:38:36;;;;;;;1.40;1.30;;;14.60;99.90;;;;;;5079223;28;20044;-39
2022/07/01 08:41:04;;;;;;;1.20;1.20;;;14.60;99.90;;;;;;5087772;28;20074;-40
2022/07/01 08:43:30;;;;;;;1.27;1.27;;;14.70;99.90;;;;;;5082929;28;20024;-38
2022/07/01 08:46:01;;;;;;;1.23;1.20;;;14.80;99.90;;;;;;5080535;28;20061;-39
2022/07/01 08:48:28;;;;;;;1.10;1.10;;;14.70;99.90;;;;;;5080087;28;20044;-37
2022/07/01 08:50:55;;;;;;;1.05;1.02;;;14.80;99.90;;;;;;5063644;28;20036;-38
2022/07/01 08:53:21;;;;;;;1.50;1.27;;;14.90;99.90;;;;;;5078619;28;20024;-39
2022/07/01 08:58:32;;;;;;;1.35;1.30;;;15.10;99.90;;;;;;5081540;28;20400;-38
2022/07/01 09:01:14;;;;;;;1.10;1.10;;;15.00;99.90;;;;;;5087172;28;20040;-37
2022/07/01 09:03:41;;;;;;;1.30;1.20;;;14.80;99.90;;;;;;5082476;28;20555;-40
2022/07/01 09:06:28;;;;;;;1.05;1.05;;;14.90;99.90;;;;;;5080835;28;20027;-40
2022/07/01 09:08:54;;;;;;;0.90;0.90;;;15.00;99.90;;;;;;5071281;28;20145;-39
2022/07/01 09:11:25;;;;;;;1.10;1.10;;;15.20;99.90;;;;;;5083407;28;20067;-37
2022/07/01 09:14:14;;;;;;;1.17;1.17;;;15.30;99.90;;;;;;5080585;28;20028;-39
2022/07/01 09:16:45;;;;;;;1.35;1.10;;;14.90;99.90;;;;;;5080707;28;20082;-40
2022/07/01 09:19:13;;;;;;;1.05;0.98;;;14.90;99.90;;;;;;5079810;28;20028;-38
2022/07/01 09:21:39;;;;;;;0.90;0.90;;;14.80;99.90;;;;;;5081622;28;20063;-39
2022/07/01 09:24:24;;;;;;;1.40;1.30;;;14.80;99.90;;;;;;5082512;28;20072;-37
2022/07/01 09:27:13;;;;;;;0.93;0.93;;;14.70;99.90;;;;;;5070311;28;20504;-39
2022/07/01 09:29:42;;;;;;;1.10;1.10;;;14.80;99.90;;;;;;5080285;28;20542;-37
2022/07/01 09:32:10;;;;;;;1.13;1.02;;;14.90;99.90;;;;;;5078699;28;20250;-38
2022/07/01 09:34:45;;;;;;;1.35;1.10;;;15.00;99.90;;;;;;5062511;28;20723;-40
2022/07/01 09:37:13;;;;;;;1.42;1.00;;;15.00;99.90;;;;;;5049026;28;20035;-38
2022/07/01 09:39:43;;;;;;;;;;;14.90;99.90;;;;;;5077316;28;20119;-40
2022/07/01 09:42:10;;;;;;;0.95;0.95;;;15.00;99.90;;;;;;5087605;28;20019;-38
2022/07/01 09:44:52;;;;;;;1.00;1.00;;;15.00;99.90;;;;;;5071379;28;20027;-38
2022/07/01 09:47:21;;;;;;;1.00;0.95;;;15.00;99.90;;;;;;5062324;28;20190;-37
2022/07/01 09:49:47;;;;;;;0.93;0.93;;;15.20;99.90;;;;;;5079713;28;20024;-37
2022/07/01 09:52:13;;;;;;;1.00;1.00;;;15.30;99.90;;;;;;5089230;28;20492;-40
2022/07/01 09:54:40;;;;;;;0.90;0.90;;;15.20;99.90;;;;;;5089153;28;20032;-40
2022/07/01 09:57:07;;;;;;;0.90;0.90;;;15.10;99.90;;;;;;5075299;28;20032;-40
2022/07/01 09:59:33;;;;;;;0.82;0.82;;;15.00;99.90;;;;;;5078468;28;20032;-38
2022/07/01 10:02:00;;;;;;;1.10;1.10;;;15.00;99.90;;;;;;5077573;28;20058;-40
2022/07/01 10:04:27;;;;;;;1.40;1.30;;;15.10;99.90;;;;;;5071186;28;20035;-37
2022/07/01 10:07:15;;;;;;;1.30;1.20;;;15.00;99.90;;;;;;5080548;28;20119;-40
2022/07/01 10:09:41;;;;;;;1.15;1.15;;;15.00;99.90;;;;;;5083431;28;20463;-39
2022/07/01 10:12:16;;;;;;;1.50;1.00;;;15.10;99.90;;;;;;5078059;28;20123;-38
2022/07/01 10:14:43;;;;;;;1.00;0.98;;;15.10;99.90;;;;;;5079590;28;20028;-40
2022/07/01 10:17:09;;;;;;;1.08;1.08;;;15.20;99.90;;;;;;5088078;28;20039;-39
2022/07/01 10:19:34;;;;;;;1.02;1.02;;;15.20;99.90;;;;;;5085387;28;20029;-39
2022/07/01 10:22:24;;;;;;;1.15;1.15;;;15.20;99.90;;;;;;5079776;28;20020;-36
2022/07/01 10:24:50;;;;;;;1.42;1.13;;;15.30;99.90;;;;;;5088482;28;20070;-39
2022/07/01 10:27:22;;;;;;;1.15;1.10;;;15.20;99.90;;;;;;5081500;28;20157;-40
2022/07/01 10:29:48;;;;;;;1.30;1.20;;;15.10;99.90;;;;;;5083860;28;20039;-39
2022/07/01 10:32:28;;;;;;;2.83;1.25;;;15.00;99.90;;;;;;5064940;28;20048;-37
2022/07/01 10:35:06;;;;;;;4.18;1.17;;;15.00;99.90;;;;;;5082636;28;20541;-37
2022/07/01 10:37:32;;;;;;;2.22;1.30;;;15.10;99.90;;;;;;5082088;28;20040;-39
2022/07/01 10:40:03;;;;;;;1.23;1.15;;;15.10;99.90;;;;;;5095180;28;20665;-36
2022/07/01 10:42:31;;;;;;;1.35;1.25;;;15.10;99.90;;;;;;5065548;28;20089;-38
2022/07/01 10:45:06;;;;;;;1.40;1.30;;;15.20;99.90;;;;;;5083344;28;20115;-39
2022/07/01 10:47:33;;;;;;;2.40;1.33;;;15.10;99.90;;;;;;5097869;28;20499;-39
2022/07/01 10:50:11;;;;;;;1.42;1.33;;;15.20;99.90;;;;;;5082813;28;20119;-35
2022/07/01 10:52:38;;;;;;;1.05;0.98;;;15.60;99.90;;;;;;5082887;28;20036;-35
2022/07/01 10:55:07;;;;;;;3.28;1.30;;;15.90;99.90;;;;;;5083063;28;20201;-38
2022/07/01 10:57:42;;;;;;;1.52;1.42;;;16.00;99.90;;;;;;5088833;28;20032;-40
2022/07/01 11:00:08;;;;;;;1.35;1.20;;;16.10;99.90;;;;;;5082592;28;20549;-39
2022/07/01 11:02:37;;;;;;;1.60;1.50;;;16.00;99.90;;;;;;5083412;28;20028;-40
2022/07/01 11:05:11;;;;;;;1.23;1.23;;;15.90;99.90;;;;;;5086867;28;20040;-40
2022/07/01 11:07:42;;;;;;;1.50;1.40;;;15.40;99.90;;;;;;5091766;28;21109;-37
2022/07/01 11:10:10;;;;;;;1.67;1.58;;;15.20;99.90;;;;;;5086326;28;20024;-36
2022/07/01 11:12:37;;;;;;;1.27;1.10;;;15.20;99.90;;;;;;5085405;28;20063;-39
2022/07/01 11:15:07;;;;;;;1.42;1.30;;;15.40;99.90;;;;;;5087363;28;20032;-41
2022/07/01 11:17:34;;;;;;;1.50;1.40;;;15.20;99.90;;;;;;5089662;28;20025;-41
2022/07/01 11:20:04;;;;;;;1.55;1.20;;;15.20;99.90;;;;;;5084770;28;20024;-38
2022/07/01 11:22:34;;;;;;;1.50;1.40;;;15.50;99.90;;;;;;5099623;28;20019;-36
2022/07/01 11:25:03;;;;;;;1.40;1.30;;;15.70;99.90;;;;;;5081469;28;20501;-37
2022/07/01 11:27:30;;;;;;;1.40;1.30;;;15.90;99.90;;;;;;5075802;28;20024;-34
2022/07/01 11:29:58;;;;;;;1.30;1.20;;;16.20;99.90;;;;;;5090103;28;20063;-36
2022/07/01 11:32:29;;;;;;;1.73;1.20;;;16.40;99.90;;;;;;5083548;28;20036;-38
2022/07/01 11:34:59;;;;;;;1.23;1.13;;;16.50;99.90;;;;;;5082544;28;20016;-36
2022/07/01 11:40:17;;;;;;;2.42;1.20;;;16.20;99.90;;;;;;5084131;28;20050;-38
2022/07/01 11:42:45;;;;;;;1.70;1.25;;;16.50;99.90;;;;;;5086744;28;20020;-35
2022/07/01 11:45:24;;;;;;;;;;;16.40;99.90;;;;;;5084606;28;20150;-38
2022/07/01 11:47:50;;;;;;;1.25;1.02;;;16.40;99.90;;;;;;5085728;28;19923;-36
2022/07/01 11:50:16;;;;;;;1.00;1.00;;;16.50;99.90;;;;;;5091928;28;20115;-37
2022/07/01 11:52:42;;;;;;;1.38;1.15;;;16.30;99.90;;;;;;5082695;28;20195;-37
2022/07/01 11:55:08;;;;;;;1.00;1.00;;;16.20;99.90;;;;;;5085106;28;20031;-38
2022/07/01 11:57:34;;;;;;;1.00;1.00;;;16.00;99.90;;;;;;5100162;27;20035;-38
2022/07/01 12:00:10;;;;;;;1.10;1.10;;;16.20;99.90;;;;;;5102676;27;20473;-37
2022/07/01 12:02:36;;;;;;;0.90;0.90;;;16.00;99.90;;;;;;5087147;28;20075;-37
2022/07/01 12:05:03;;;;;;;1.15;0.95;;;16.00;99.90;;;;;;5084386;28;20155;-38
2022/07/01 12:07:29;;;;;;;1.20;1.02;;;15.80;99.90;;;;;;5067988;28;20512;-38
2022/07/01 12:09:55;;;;;;;1.23;1.13;;;15.80;99.90;;;;;;5095638;27;20024;-38
2022/07/01 12:12:25;;;;;;;1.38;1.27;;;15.70;99.90;;;;;;5085117;28;20145;-38
2022/07/01 12:14:53;;;;;;;1.35;1.25;;;15.70;99.90;;;;;;5084299;28;20032;-35
2022/07/01 12:17:20;;;;;;;1.00;1.00;;;15.70;99.90;;;;;;5086857;28;20024;-35
2022/07/01 12:19:47;;;;;;;1.00;1.00;;;15.70;99.90;;;;;;5085262;28;20033;-35
2022/07/01 12:22:15;;;;;;;0.75;0.75;;;15.60;99.90;;;;;;5083986;28;20632;-35
2022/07/01 12:24:41;;;;;;;;;;;15.20;99.90;;;;;;5083838;28;20921;-34
2022/07/01 12:27:08;;;;;;;0.80;0.80;;;15.20;99.90;;;;;;5083997;28;19908;-35
2022/07/01 12:29:39;;;;;;;0.90;0.90;;;15.10;99.90;;;;;;5087289;28;20024;-38
2022/07/01 12:32:06;;;;;;;1.10;1.10;;;15.20;99.90;;;;;;5086793;28;20040;-37
2022/07/01 12:34:49;;;;;;;1.33;1.17;;;15.20;99.90;;;;;;5095660;28;20050;-37
2022/07/01 12:37:17;;;;;;;0.80;0.80;;;14.90;99.90;;;;;;5085377;28;20024;-38
2022/07/01 12:39:58;;;;;;;1.00;1.00;;;14.80;99.90;;;;;;5076286;28;20028;-38
2022/07/01 12:42:38;;;;;;;1.10;0.90;;;14.90;99.90;;;;;;5088402;28;20270;-37
2022/07/01 12:45:10;;;;;;;1.20;1.10;;;14.70;99.90;;;;;;5097147;28;20477;-35
2022/07/01 12:47:37;;;;;;;0.93;0.93;;;14.90;99.90;;;;;;5087364;28;20040;-35
2022/07/01 12:50:32;;;;;;;1.02;1.02;;;15.00;99.90;;;;;;5085911;28;20034;-38
2022/07/01 12:53:05;;;;;;;1.90;1.05;;;15.00;99.90;;;;;;5079296;28;20059;-38
2022/07/01 12:55:36;;;;;;;2.05;1.38;;;15.20;99.90;;;;;;5087567;28;20028;-37
2022/07/01 12:58:10;;;;;;;1.27;1.27;;;15.40;99.90;;;;;;5092398;28;20065;-36
2022/07/01 13:00:39;;;;;;;1.52;1.42;;;15.20;99.90;;;;;;5081848;28;20020;-36
2022/07/01 13:03:06;;;;;;;2.20;1.35;;;15.00;99.90;;;;;;5084703;28;20050;-36
2022/07/01 13:05:33;;;;;;;1.55;1.45;;;14.90;99.90;;;;;;5088805;28;20073;-36
2022/07/01 13:07:59;;;;;;;1.37;1.20;;;14.80;99.90;;;;;;5088642;28;20080;-35